sensor_id;sensor_type;location;lat;lon;timestamp;temperature;humidity
19908;DHT22;10116;53.112;7.356;2022-10-16T00:02:15;25.90;99.90
19908;DHT22;10116;53.112;7.356;2022-10-16T00:04:41;25.80;99.90
19908;DHT22;10116;53.112;7.356;2022-10-16T00:07:07;25.80;99.90
19908;DHT22;10116;53.112;7.356;2022-10-16T00:09:32;25.80;99.90
19908;DHT22;10116;53.112;7.356;2022-10-16T00:11:58;25.80;99.90
19908;DHT22;10116;53.112;7.356;2022-10-16T00:14:23;25.80;99.90
19908;DHT22;10116;53.112;7.356;2022-10-16T00:16:49;25.80;99.90
19908;DHT22;10116;53.112;7.356;2022-10-16T00:19:14;25.80;99.90
19908;DHT22;10116;53.112;7.356;2022-10-16T00:21:41;25.80;99.90
19908;DHT22;10116;53.112;7.356;2022-10-16T00:24:08;25.80;99.90
19908;DHT22;10116;53.112;7.356;2022-10-16T00:26:34;25.80;99.90
19908;DHT22;10116;53.112;7.356;2022-10-16T00:29:01;25.80;99.90
19908;DHT22;10116;53.112;7.356;2022-10-16T00:31:27;25.80;99.90
19908;DHT22;10116;53.112;7.356;2022-10-16T00:33:53;25.70;99.90
19908;DHT22;10116;53.112;7.356;2022-10-16T00:36:22;25.80;99.90
19908;DHT22;10116;53.112;7.356;2022-10-16T00:38:51;25.80;99.90
19908;DHT22;10116;53.112;7.356;2022-10-16T00:41:18;25.70;99.90
19908;DHT22;10116;53.112;7.356;2022-10-16T00:43:46;25.80;99.90
19908;DHT22;10116;53.112;7.356;2022-10-16T00:46:17;25.80;99.90
19908;DHT22;10116;53.112;7.356;2022-10-16T00:48:57;25.80;99.90
19908;DHT22;10116;53.112;7.356;2022-10-16T00:51:30;25.70;99.90
19908;DHT22;10116;53.112;7.356;2022-10-16T00:53:58;25.70;99.90
19908;DHT22;10116;53.112;7.356;2022-10-16T00:56:24;25.80;99.90
19908;DHT22;10116;53.112;7.356;2022-10-16T00:58:49;25.80;99.90
19908;DHT22;10116;53.112;7.356;2022-10-16T01:01:15;25.80;99.90
19908;DHT22;10116;53.112;7.356;2022-10-16T01:03:41;25.70;99.90
19908;DHT22;10116;53.112;7.356;2022-10-16T01:08:53;25.70;99.90
19908;DHT22;10116;53.112;7.356;2022-10-16T01:13:54;25.70;99.90
19908;DHT22;10116;53.112;7.356;2022-10-16T01:16:44;25.70;99.90
19908;DHT22;10116;53.112;7.356;2022-10-16T01:19:26;25.70;99.90
19908;DHT22;10116;53.112;7.356;2022-10-16T01:21:58;25.70;99.90
19908;DHT22;10116;53.112;7.356;2022-10-16T01:27:06;25.70;99.90
19908;DHT22;10116;53.112;7.356;2022-10-16T01:29:56;25.70;99.90
19908;DHT22;10116;53.112;7.356;2022-10-16T01:32:28;25.70;99.90
19908;DHT22;10116;53.112;7.356;2022-10-16T01:37:59;25.70;99.90
19908;DHT22;10116;53.112;7.356;2022-10-16T01:40:27;25.70;99.90
19908;DHT22;10116;53.112;7.356;2022-10-16T01:43:23;25.70;99.90
19908;DHT22;10116;53.112;7.356;2022-10-16T01:45:47;25.70;99.90
19908;DHT22;10116;53.112;7.356;2022-10-16T01:48:14;25.70;99.90
19908;DHT22;10116;53.112;7.356;2022-10-16T01:50:43;25.60;99.90
19908;DHT22;10116;53.112;7.356;2022-10-16T01:53:12;25.60;99.90
19908;DHT22;10116;53.112;7.356;2022-10-16T01:55:42;25.70;99.90
19908;DHT22;10116;53.112;7.356;2022-10-16T01:58:11;25.70;99.90
19908;DHT22;10116;53.112;7.356;2022-10-16T02:00:38;25.70;99.90
19908;DHT22;10116;53.112;7.356;2022-10-16T02:03:06;25.70;99.90
19908;DHT22;10116;53.112;7.356;2022-10-16T02:05:39;25.70;99.90
19908;DHT22;10116;53.112;7.356;2022-10-16T02:08:06;25.70;99.90
19908;DHT22;10116;53.112;7.356;2022-10-16T02:10:32;25.70;99.90
19908;DHT22;10116;53.112;7.356;2022-10-16T02:13:10;25.70;99.90
19908;DHT22;10116;53.112;7.356;2022-10-16T02:15:37;25.70;99.90
19908;DHT22;10116;53.112;7.356;2022-10-16T02:18:04;25.70;99.90
19908;DHT22;10116;53.112;7.356;2022-10-16T02:20:38;25.70;99.90
19908;DHT22;10116;53.112;7.356;2022-10-16T02:23:06;25.70;99.90
19908;DHT22;10116;53.112;7.356;2022-10-16T02:25:40;25.60;99.90
19908;DHT22;10116;53.112;7.356;2022-10-16T02:28:12;25.60;99.90
19908;DHT22;10116;53.112;7.356;2022-10-16T02:30:56;25.60;99.90
19908;DHT22;10116;53.112;7.356;2022-10-16T02:33:23;25.60;99.90
19908;DHT22;10116;53.112;7.356;2022-10-16T02:35:51;25.60;99.90
19908;DHT22;10116;53.112;7.356;2022-10-16T02:38:17;25.60;99.90
19908;DHT22;10116;53.112;7.356;2022-10-16T02:40:43;25.60;99.90
19908;DHT22;10116;53.112;7.356;2022-10-16T02:43:09;25.60;99.90
19908;DHT22;10116;53.112;7.356;2022-10-16T02:45:35;25.60;99.90
19908;DHT22;10116;53.112;7.356;2022-10-16T02:48:01;25.60;99.90
19908;DHT22;10116;53.112;7.356;2022-10-16T02:50:27;25.60;99.90
19908;DHT22;10116;53.112;7.356;2022-10-16T02:52:52;25.60;99.90
19908;DHT22;10116;53.112;7.356;2022-10-16T02:55:18;25.60;99.90
19908;DHT22;10116;53.112;7.356;2022-10-16T02:57:44;25.60;99.90
19908;DHT22;10116;53.112;7.356;2022-10-16T03:00:11;25.60;99.90
19908;DHT22;10116;53.112;7.356;2022-10-16T03:02:37;25.60;99.90
19908;DHT22;10116;53.112;7.356;2022-10-16T03:05:03;25.60;99.90
19908;DHT22;10116;53.112;7.356;2022-10-16T03:07:29;25.60;99.90
19908;DHT22;10116;53.112;7.356;2022-10-16T03:09:54;25.60;99.90
19908;DHT22;10116;53.112;7.356;2022-10-16T03:12:21;25.60;99.90
19908;DHT22;10116;53.112;7.356;2022-10-16T03:14:46;25.60;99.90
19908;DHT22;10116;53.112;7.356;2022-10-16T03:17:12;25.60;99.90
19908;DHT22;10116;53.112;7.356;2022-10-16T03:19:38;25.60;99.90
19908;DHT22;10116;53.112;7.356;2022-10-16T03:22:04;25.60;99.90
19908;DHT22;10116;53.112;7.356;2022-10-16T03:24:30;25.60;99.90
19908;DHT22;10116;53.112;7.356;2022-10-16T03:26:55;25.60;99.90
19908;DHT22;10116;53.112;7.356;2022-10-16T03:29:21;25.60;99.90
19908;DHT22;10116;53.112;7.356;2022-10-16T03:31:46;25.60;99.90
19908;DHT22;10116;53.112;7.356;2022-10-16T03:34:13;25.70;99.90
19908;DHT22;10116;53.112;7.356;2022-10-16T03:36:39;25.90;99.90
19908;DHT22;10116;53.112;7.356;2022-10-16T03:39:05;25.90;99.90
19908;DHT22;10116;53.112;7.356;2022-10-16T03:41:30;26.00;99.90
19908;DHT22;10116;53.112;7.356;2022-10-16T03:43:56;26.10;99.90
19908;DHT22;10116;53.112;7.356;2022-10-16T03:46:21;26.10;99.90
19908;DHT22;10116;53.112;7.356;2022-10-16T03:48:47;26.10;99.90
19908;DHT22;10116;53.112;7.356;2022-10-16T03:51:13;26.10;99.90
19908;DHT22;10116;53.112;7.356;2022-10-16T03:53:38;26.10;99.90
19908;DHT22;10116;53.112;7.356;2022-10-16T03:56:04;26.10;99.90
19908;DHT22;10116;53.112;7.356;2022-10-16T03:58:30;26.10;99.90
19908;DHT22;10116;53.112;7.356;2022-10-16T04:00:55;26.10;99.90
19908;DHT22;10116;53.112;7.356;2022-10-16T04:03:21;26.10;99.90
19908;DHT22;10116;53.112;7.356;2022-10-16T04:05:46;26.10;99.90
19908;DHT22;10116;53.112;7.356;2022-10-16T04:08:12;26.10;99.90
19908;DHT22;10116;53.112;7.356;2022-10-16T04:10:38;26.10;99.90
19908;DHT22;10116;53.112;7.356;2022-10-16T04:13:03;26.10;99.90
19908;DHT22;10116;53.112;7.356;2022-10-16T04:15:29;26.00;99.90
19908;DHT22;10116;53.112;7.356;2022-10-16T04:17:54;26.00;99.90
19908;DHT22;10116;53.112;7.356;2022-10-16T04:20:20;26.00;99.90
19908;DHT22;10116;53.112;7.356;2022-10-16T04:22:46;26.00;99.90
19908;DHT22;10116;53.112;7.356;2022-10-16T04:25:11;26.00;99.90
19908;DHT22;10116;53.112;7.356;2022-10-16T04:27:38;26.00;99.90
19908;DHT22;10116;53.112;7.356;2022-10-16T04:30:04;25.90;99.90
19908;DHT22;10116;53.112;7.356;2022-10-16T04:32:30;25.90;99.90
19908;DHT22;10116;53.112;7.356;2022-10-16T04:34:56;25.90;99.90
19908;DHT22;10116;53.112;7.356;2022-10-16T04:37:25;25.90;99.90
19908;DHT22;10116;53.112;7.356;2022-10-16T04:39:52;25.90;99.90
19908;DHT22;10116;53.112;7.356;2022-10-16T04:42:18;25.90;99.90
19908;DHT22;10116;53.112;7.356;2022-10-16T04:44:44;25.80;99.90
19908;DHT22;10116;53.112;7.356;2022-10-16T04:47:09;25.90;99.90
19908;DHT22;10116;53.112;7.356;2022-10-16T04:49:35;25.80;99.90
19908;DHT22;10116;53.112;7.356;2022-10-16T04:52:01;25.80;99.90
19908;DHT22;10116;53.112;7.356;2022-10-16T04:54:26;25.80;99.90
19908;DHT22;10116;53.112;7.356;2022-10-16T04:56:52;25.80;99.90
19908;DHT22;10116;53.112;7.356;2022-10-16T04:59:19;25.90;99.90
19908;DHT22;10116;53.112;7.356;2022-10-16T05:01:45;25.90;99.90
19908;DHT22;10116;53.112;7.356;2022-10-16T05:04:11;26.00;99.90
19908;DHT22;10116;53.112;7.356;2022-10-16T05:06:38;26.10;99.90
19908;DHT22;10116;53.112;7.356;2022-10-16T05:09:07;26.10;99.90
19908;DHT22;10116;53.112;7.356;2022-10-16T05:11:33;26.20;99.90
19908;DHT22;10116;53.112;7.356;2022-10-16T05:13:59;26.20;99.90
19908;DHT22;10116;53.112;7.356;2022-10-16T05:16:25;26.20;99.90
19908;DHT22;10116;53.112;7.356;2022-10-16T05:18:54;26.20;99.90
19908;DHT22;10116;53.112;7.356;2022-10-16T05:21:20;26.20;99.90
19908;DHT22;10116;53.112;7.356;2022-10-16T05:23:45;26.20;99.90
19908;DHT22;10116;53.112;7.356;2022-10-16T05:26:11;26.20;99.90
19908;DHT22;10116;53.112;7.356;2022-10-16T05:28:37;26.20;99.90
19908;DHT22;10116;53.112;7.356;2022-10-16T05:31:06;26.20;99.90
19908;DHT22;10116;53.112;7.356;2022-10-16T05:33:33;26.20;99.90
19908;DHT22;10116;53.112;7.356;2022-10-16T05:36:06;26.20;99.90
19908;DHT22;10116;53.112;7.356;2022-10-16T05:38:33;26.20;99.90
19908;DHT22;10116;53.112;7.356;2022-10-16T05:40:59;26.20;99.90
19908;DHT22;10116;53.112;7.356;2022-10-16T05:43:24;26.20;99.90
19908;DHT22;10116;53.112;7.356;2022-10-16T05:46:04;26.10;99.90
19908;DHT22;10116;53.112;7.356;2022-10-16T05:48:30;26.10;99.90
19908;DHT22;10116;53.112;7.356;2022-10-16T05:51:01;26.10;99.90
19908;DHT22;10116;53.112;7.356;2022-10-16T05:53:29;26.10;99.90
19908;DHT22;10116;53.112;7.356;2022-10-16T05:55:56;26.10;99.90
19908;DHT22;10116;53.112;7.356;2022-10-16T05:58:22;26.00;99.90
19908;DHT22;10116;53.112;7.356;2022-10-16T06:00:59;26.00;99.90
19908;DHT22;10116;53.112;7.356;2022-10-16T06:03:25;25.90;99.90
19908;DHT22;10116;53.112;7.356;2022-10-16T06:05:51;25.90;99.90
19908;DHT22;10116;53.112;7.356;2022-10-16T06:08:18;25.90;99.90
19908;DHT22;10116;53.112;7.356;2022-10-16T06:10:44;25.90;99.90
19908;DHT22;10116;53.112;7.356;2022-10-16T06:13:11;25.90;99.90
19908;DHT22;10116;53.112;7.356;2022-10-16T06:15:38;25.90;99.90
19908;DHT22;10116;53.112;7.356;2022-10-16T06:18:04;25.90;99.90
19908;DHT22;10116;53.112;7.356;2022-10-16T06:20:30;25.90;99.90
19908;DHT22;10116;53.112;7.356;2022-10-16T06:22:56;25.90;99.90
19908;DHT22;10116;53.112;7.356;2022-10-16T06:25:22;26.00;99.90
19908;DHT22;10116;53.112;7.356;2022-10-16T06:27:48;26.10;99.90
19908;DHT22;10116;53.112;7.356;2022-10-16T06:30:13;26.10;99.90
19908;DHT22;10116;53.112;7.356;2022-10-16T06:32:39;26.20;99.90
19908;DHT22;10116;53.112;7.356;2022-10-16T06:35:05;26.20;99.90
19908;DHT22;10116;53.112;7.356;2022-10-16T06:37:30;26.20;99.90
19908;DHT22;10116;53.112;7.356;2022-10-16T06:39:56;26.20;99.90
19908;DHT22;10116;53.112;7.356;2022-10-16T06:42:22;26.20;99.90
19908;DHT22;10116;53.112;7.356;2022-10-16T06:44:47;26.20;99.90
19908;DHT22;10116;53.112;7.356;2022-10-16T06:47:13;26.20;99.90
19908;DHT22;10116;53.112;7.356;2022-10-16T06:49:38;26.20;99.90
19908;DHT22;10116;53.112;7.356;2022-10-16T06:52:04;26.20;99.90
19908;DHT22;10116;53.112;7.356;2022-10-16T06:54:30;26.20;99.90
19908;DHT22;10116;53.112;7.356;2022-10-16T06:56:56;26.20;99.90
19908;DHT22;10116;53.112;7.356;2022-10-16T06:59:21;26.20;99.90
19908;DHT22;10116;53.112;7.356;2022-10-16T07:01:47;26.20;99.90
19908;DHT22;10116;53.112;7.356;2022-10-16T07:04:13;26.20;99.90
19908;DHT22;10116;53.112;7.356;2022-10-16T07:06:39;26.10;99.90
19908;DHT22;10116;53.112;7.356;2022-10-16T07:09:07;26.10;99.90
19908;DHT22;10116;53.112;7.356;2022-10-16T07:11:33;26.10;99.90
19908;DHT22;10116;53.112;7.356;2022-10-16T07:13:59;26.10;99.90
19908;DHT22;10116;53.112;7.356;2022-10-16T07:16:29;26.10;99.90
19908;DHT22;10116;53.112;7.356;2022-10-16T07:18:56;26.00;99.90
19908;DHT22;10116;53.112;7.356;2022-10-16T07:21:27;26.00;99.90
19908;DHT22;10116;53.112;7.356;2022-10-16T07:23:59;26.00;99.90
19908;DHT22;10116;53.112;7.356;2022-10-16T07:26:28;25.90;99.90
19908;DHT22;10116;53.112;7.356;2022-10-16T07:28:55;25.90;99.90
19908;DHT22;10116;53.112;7.356;2022-10-16T07:31:22;25.90;99.90
19908;DHT22;10116;53.112;7.356;2022-10-16T07:33:49;25.90;99.90
19908;DHT22;10116;53.112;7.356;2022-10-16T07:36:16;25.90;99.90
19908;DHT22;10116;53.112;7.356;2022-10-16T07:38:43;25.90;99.90
19908;DHT22;10116;53.112;7.356;2022-10-16T07:41:12;25.80;99.90
19908;DHT22;10116;53.112;7.356;2022-10-16T07:43:38;25.90;99.90
19908;DHT22;10116;53.112;7.356;2022-10-16T07:46:03;25.90;99.90
19908;DHT22;10116;53.112;7.356;2022-10-16T07:48:33;26.00;99.90
19908;DHT22;10116;53.112;7.356;2022-10-16T07:51:05;26.10;99.90
19908;DHT22;10116;53.112;7.356;2022-10-16T07:53:31;26.10;99.90
19908;DHT22;10116;53.112;7.356;2022-10-16T07:55:59;26.10;99.90
19908;DHT22;10116;53.112;7.356;2022-10-16T07:58:25;26.10;99.90
19908;DHT22;10116;53.112;7.356;2022-10-16T08:00:51;26.10;99.90
19908;DHT22;10116;53.112;7.356;2022-10-16T08:03:16;26.10;99.90
19908;DHT22;10116;53.112;7.356;2022-10-16T08:05:42;26.00;99.90
19908;DHT22;10116;53.112;7.356;2022-10-16T08:08:14;26.00;99.90
19908;DHT22;10116;53.112;7.356;2022-10-16T08:10:40;26.00;99.90
19908;DHT22;10116;53.112;7.356;2022-10-16T08:13:06;26.00;99.90
19908;DHT22;10116;53.112;7.356;2022-10-16T08:15:31;26.10;99.90
19908;DHT22;10116;53.112;7.356;2022-10-16T08:18:00;26.00;99.90
19908;DHT22;10116;53.112;7.356;2022-10-16T08:20:27;25.90;99.90
19908;DHT22;10116;53.112;7.356;2022-10-16T08:22:53;25.90;99.90
19908;DHT22;10116;53.112;7.356;2022-10-16T08:25:23;25.90;99.90
19908;DHT22;10116;53.112;7.356;2022-10-16T08:27:49;25.90;99.90
19908;DHT22;10116;53.112;7.356;2022-10-16T08:30:16;25.90;99.90
19908;DHT22;10116;53.112;7.356;2022-10-16T08:32:42;25.90;99.90
19908;DHT22;10116;53.112;7.356;2022-10-16T08:35:09;25.90;99.90
19908;DHT22;10116;53.112;7.356;2022-10-16T08:37:36;25.90;99.90
19908;DHT22;10116;53.112;7.356;2022-10-16T08:40:03;25.90;99.90
19908;DHT22;10116;53.112;7.356;2022-10-16T08:42:57;25.90;99.90
19908;DHT22;10116;53.112;7.356;2022-10-16T08:50:41;25.80;99.90
19908;DHT22;10116;53.112;7.356;2022-10-16T08:53:14;25.80;99.90
19908;DHT22;10116;53.112;7.356;2022-10-16T08:55:50;25.80;99.90
19908;DHT22;10116;53.112;7.356;2022-10-16T08:58:18;25.80;99.90
19908;DHT22;10116;53.112;7.356;2022-10-16T09:00:51;25.70;99.90
19908;DHT22;10116;53.112;7.356;2022-10-16T09:06:22;25.60;99.90
19908;DHT22;10116;53.112;7.356;2022-10-16T09:17:41;25.40;99.90
19908;DHT22;10116;53.112;7.356;2022-10-16T09:25:31;25.30;99.90
19908;DHT22;10116;53.112;7.356;2022-10-16T09:27:57;25.30;99.90
19908;DHT22;10116;53.112;7.356;2022-10-16T09:30:27;25.30;99.90
19908;DHT22;10116;53.112;7.356;2022-10-16T09:32:55;25.30;99.90
19908;DHT22;10116;53.112;7.356;2022-10-16T09:35:37;25.30;99.90
19908;DHT22;10116;53.112;7.356;2022-10-16T09:38:04;25.30;99.90
19908;DHT22;10116;53.112;7.356;2022-10-16T09:40:38;25.30;99.90
19908;DHT22;10116;53.112;7.356;2022-10-16T09:46:03;25.30;99.90
19908;DHT22;10116;53.112;7.356;2022-10-16T09:48:48;25.30;99.90
19908;DHT22;10116;53.112;7.356;2022-10-16T09:51:23;25.30;99.90
19908;DHT22;10116;53.112;7.356;2022-10-16T09:53:55;25.40;99.90
19908;DHT22;10116;53.112;7.356;2022-10-16T09:56:32;25.40;99.90
19908;DHT22;10116;53.112;7.356;2022-10-16T09:59:01;25.40;99.90
19908;DHT22;10116;53.112;7.356;2022-10-16T10:01:49;25.40;99.90
19908;DHT22;10116;53.112;7.356;2022-10-16T10:04:16;25.40;99.90
19908;DHT22;10116;53.112;7.356;2022-10-16T10:11:56;25.70;99.90
19908;DHT22;10116;53.112;7.356;2022-10-16T10:14:48;25.80;99.90
19908;DHT22;10116;53.112;7.356;2022-10-16T10:22:41;25.90;99.90
19908;DHT22;10116;53.112;7.356;2022-10-16T10:25:12;26.00;99.90
19908;DHT22;10116;53.112;7.356;2022-10-16T10:33:38;26.00;99.90
19908;DHT22;10116;53.112;7.356;2022-10-16T10:36:28;26.00;99.90
19908;DHT22;10116;53.112;7.356;2022-10-16T10:38:58;26.00;99.90
19908;DHT22;10116;53.112;7.356;2022-10-16T10:46:51;26.00;99.90
19908;DHT22;10116;53.112;7.356;2022-10-16T10:49:26;26.00;99.90
19908;DHT22;10116;53.112;7.356;2022-10-16T10:52:08;26.00;99.90
19908;DHT22;10116;53.112;7.356;2022-10-16T10:54:49;26.00;99.90
19908;DHT22;10116;53.112;7.356;2022-10-16T10:57:29;26.00;99.90
19908;DHT22;10116;53.112;7.356;2022-10-16T11:00:30;26.10;99.90
19908;DHT22;10116;53.112;7.356;2022-10-16T11:03:16;26.10;99.90
19908;DHT22;10116;53.112;7.356;2022-10-16T11:06:20;26.00;99.90
19908;DHT22;10116;53.112;7.356;2022-10-16T11:09:06;26.00;99.90
19908;DHT22;10116;53.112;7.356;2022-10-16T11:11:40;26.00;99.90
19908;DHT22;10116;53.112;7.356;2022-10-16T11:19:49;25.90;99.90
19908;DHT22;10116;53.112;7.356;2022-10-16T11:22:22;25.90;99.90
19908;DHT22;10116;53.112;7.356;2022-10-16T11:24:55;25.90;99.90
19908;DHT22;10116;53.112;7.356;2022-10-16T11:27:37;25.90;99.90
19908;DHT22;10116;53.112;7.356;2022-10-16T11:30:12;25.90;99.90
19908;DHT22;10116;53.112;7.356;2022-10-16T11:33:06;25.80;99.90
19908;DHT22;10116;53.112;7.356;2022-10-16T11:36:23;25.80;99.90
19908;DHT22;10116;53.112;7.356;2022-10-16T11:39:00;25.90;99.90
19908;DHT22;10116;53.112;7.356;2022-10-16T11:41:42;26.00;99.90
19908;DHT22;10116;53.112;7.356;2022-10-16T11:47:06;26.10;99.90
19908;DHT22;10116;53.112;7.356;2022-10-16T11:49:36;26.10;99.90
19908;DHT22;10116;53.112;7.356;2022-10-16T11:52:23;26.20;99.90
19908;DHT22;10116;53.112;7.356;2022-10-16T11:54:55;26.20;99.90
19908;DHT22;10116;53.112;7.356;2022-10-16T11:57:24;26.20;99.90
19908;DHT22;10116;53.112;7.356;2022-10-16T12:00:27;26.20;99.90
19908;DHT22;10116;53.112;7.356;2022-10-16T12:05:55;26.20;99.90
19908;DHT22;10116;53.112;7.356;2022-10-16T12:08:26;26.10;99.90
19908;DHT22;10116;53.112;7.356;2022-10-16T12:10:52;26.10;99.90
19908;DHT22;10116;53.112;7.356;2022-10-16T12:16:24;26.10;99.90
19908;DHT22;10116;53.112;7.356;2022-10-16T12:19:12;26.10;99.90
19908;DHT22;10116;53.112;7.356;2022-10-16T12:21:38;26.10;99.90
19908;DHT22;10116;53.112;7.356;2022-10-16T12:24:05;26.10;99.90
19908;DHT22;10116;53.112;7.356;2022-10-16T12:26:38;26.10;99.90
19908;DHT22;10116;53.112;7.356;2022-10-16T12:31:47;26.00;99.90
19908;DHT22;10116;53.112;7.356;2022-10-16T12:34:23;25.90;99.90
19908;DHT22;10116;53.112;7.356;2022-10-16T12:36:52;25.90;99.90
19908;DHT22;10116;53.112;7.356;2022-10-16T12:39:25;25.90;99.90
19908;DHT22;10116;53.112;7.356;2022-10-16T12:44:53;25.80;99.90
19908;DHT22;10116;53.112;7.356;2022-10-16T12:49:55;25.80;99.90
19908;DHT22;10116;53.112;7.356;2022-10-16T12:52:39;25.70;99.90
19908;DHT22;10116;53.112;7.356;2022-10-16T12:55:15;25.70;99.90
19908;DHT22;10116;53.112;7.356;2022-10-16T13:06:16;25.60;99.90
19908;DHT22;10116;53.112;7.356;2022-10-16T13:19:45;25.60;99.90
19908;DHT22;10116;53.112;7.356;2022-10-16T13:22:34;25.70;99.90
19908;DHT22;10116;53.112;7.356;2022-10-16T13:30:26;25.90;99.90
19908;DHT22;10116;53.112;7.356;2022-10-16T13:33:07;25.90;99.90
19908;DHT22;10116;53.112;7.356;2022-10-16T13:35:48;25.90;99.90
19908;DHT22;10116;53.112;7.356;2022-10-16T13:38:19;26.00;99.90
19908;DHT22;10116;53.112;7.356;2022-10-16T13:43:37;25.90;99.90
19908;DHT22;10116;53.112;7.356;2022-10-16T13:46:14;25.90;99.90
19908;DHT22;10116;53.112;7.356;2022-10-16T13:48:40;25.90;99.90
19908;DHT22;10116;53.112;7.356;2022-10-16T13:51:13;25.90;99.90
19908;DHT22;10116;53.112;7.356;2022-10-16T13:53:40;25.90;99.90
19908;DHT22;10116;53.112;7.356;2022-10-16T13:56:14;25.80;99.90
19908;DHT22;10116;53.112;7.356;2022-10-16T13:58:41;25.80;99.90
19908;DHT22;10116;53.112;7.356;2022-10-16T14:01:19;25.80;99.90
19908;DHT22;10116;53.112;7.356;2022-10-16T14:03:46;25.80;99.90
19908;DHT22;10116;53.112;7.356;2022-10-16T14:06:15;25.70;99.90
19908;DHT22;10116;53.112;7.356;2022-10-16T14:08:50;25.70;99.90
19908;DHT22;10116;53.112;7.356;2022-10-16T14:11:23;25.70;99.90
19908;DHT22;10116;53.112;7.356;2022-10-16T14:13:50;25.70;99.90
19908;DHT22;10116;53.112;7.356;2022-10-16T14:16:22;25.70;99.90
19908;DHT22;10116;53.112;7.356;2022-10-16T14:18:57;25.60;99.90
19908;DHT22;10116;53.112;7.356;2022-10-16T14:21:24;25.60;99.90
19908;DHT22;10116;53.112;7.356;2022-10-16T14:23:52;25.60;99.90
19908;DHT22;10116;53.112;7.356;2022-10-16T14:26:20;25.60;99.90
19908;DHT22;10116;53.112;7.356;2022-10-16T14:28:48;25.60;99.90
19908;DHT22;10116;53.112;7.356;2022-10-16T14:31:33;25.60;99.90
19908;DHT22;10116;53.112;7.356;2022-10-16T14:33:59;25.60;99.90
19908;DHT22;10116;53.112;7.356;2022-10-16T14:36:26;25.60;99.90
19908;DHT22;10116;53.112;7.356;2022-10-16T14:39:04;25.50;99.90
19908;DHT22;10116;53.112;7.356;2022-10-16T14:41:44;25.50;99.90
19908;DHT22;10116;53.112;7.356;2022-10-16T14:44:11;25.60;99.90
19908;DHT22;10116;53.112;7.356;2022-10-16T14:46:42;25.70;99.90
19908;DHT22;10116;53.112;7.356;2022-10-16T14:51:34;25.90;99.90
19908;DHT22;10116;53.112;7.356;2022-10-16T14:54:00;25.90;99.90
19908;DHT22;10116;53.112;7.356;2022-10-16T14:59:40;26.00;99.90
19908;DHT22;10116;53.112;7.356;2022-10-16T15:02:32;26.00;99.90
19908;DHT22;10116;53.112;7.356;2022-10-16T15:05:18;26.00;99.90
19908;DHT22;10116;53.112;7.356;2022-10-16T15:07:43;26.00;99.90
19908;DHT22;10116;53.112;7.356;2022-10-16T15:10:10;25.90;99.90
19908;DHT22;10116;53.112;7.356;2022-10-16T15:12:35;25.90;99.90
19908;DHT22;10116;53.112;7.356;2022-10-16T15:15:01;25.90;99.90
19908;DHT22;10116;53.112;7.356;2022-10-16T15:17:27;25.90;99.90
19908;DHT22;10116;53.112;7.356;2022-10-16T15:19:52;25.80;99.90
19908;DHT22;10116;53.112;7.356;2022-10-16T15:22:18;25.80;99.90
19908;DHT22;10116;53.112;7.356;2022-10-16T15:24:44;25.80;99.90
19908;DHT22;10116;53.112;7.356;2022-10-16T15:27:09;25.70;99.90
19908;DHT22;10116;53.112;7.356;2022-10-16T15:29:35;25.70;99.90
19908;DHT22;10116;53.112;7.356;2022-10-16T15:32:00;25.70;99.90
19908;DHT22;10116;53.112;7.356;2022-10-16T15:34:26;25.70;99.90
19908;DHT22;10116;53.112;7.356;2022-10-16T15:36:52;25.70;99.90
19908;DHT22;10116;53.112;7.356;2022-10-16T15:39:19;25.70;99.90
19908;DHT22;10116;53.112;7.356;2022-10-16T15:41:46;25.80;99.90
19908;DHT22;10116;53.112;7.356;2022-10-16T15:44:20;25.90;99.90
19908;DHT22;10116;53.112;7.356;2022-10-16T15:46:48;25.90;99.90
19908;DHT22;10116;53.112;7.356;2022-10-16T15:49:13;26.00;99.90
19908;DHT22;10116;53.112;7.356;2022-10-16T15:51:41;26.10;99.90
19908;DHT22;10116;53.112;7.356;2022-10-16T15:54:07;26.10;99.90
19908;DHT22;10116;53.112;7.356;2022-10-16T15:56:33;26.10;99.90
19908;DHT22;10116;53.112;7.356;2022-10-16T15:59:02;26.10;99.90
19908;DHT22;10116;53.112;7.356;2022-10-16T16:01:27;26.10;99.90
19908;DHT22;10116;53.112;7.356;2022-10-16T16:03:55;26.10;99.90
19908;DHT22;10116;53.112;7.356;2022-10-16T16:06:21;26.10;99.90
19908;DHT22;10116;53.112;7.356;2022-10-16T16:08:48;26.00;99.90
19908;DHT22;10116;53.112;7.356;2022-10-16T16:11:15;26.00;99.90
19908;DHT22;10116;53.112;7.356;2022-10-16T16:13:41;26.00;99.90
19908;DHT22;10116;53.112;7.356;2022-10-16T16:16:07;26.00;99.90
19908;DHT22;10116;53.112;7.356;2022-10-16T16:18:33;25.90;99.90
19908;DHT22;10116;53.112;7.356;2022-10-16T16:20:59;26.00;99.90
19908;DHT22;10116;53.112;7.356;2022-10-16T16:23:25;26.00;99.90
19908;DHT22;10116;53.112;7.356;2022-10-16T16:26:10;26.00;99.90
19908;DHT22;10116;53.112;7.356;2022-10-16T16:28:37;26.10;99.90
19908;DHT22;10116;53.112;7.356;2022-10-16T16:31:03;26.20;99.90
19908;DHT22;10116;53.112;7.356;2022-10-16T16:33:29;26.20;99.90
19908;DHT22;10116;53.112;7.356;2022-10-16T16:36:01;26.20;99.90
19908;DHT22;10116;53.112;7.356;2022-10-16T16:38:27;26.20;99.90
19908;DHT22;10116;53.112;7.356;2022-10-16T16:40:53;26.20;99.90
19908;DHT22;10116;53.112;7.356;2022-10-16T16:43:22;26.20;99.90
19908;DHT22;10116;53.112;7.356;2022-10-16T16:45:48;26.20;99.90
19908;DHT22;10116;53.112;7.356;2022-10-16T16:48:13;26.10;99.90
19908;DHT22;10116;53.112;7.356;2022-10-16T16:50:39;26.10;99.90
19908;DHT22;10116;53.112;7.356;2022-10-16T16:53:04;26.10;99.90
19908;DHT22;10116;53.112;7.356;2022-10-16T16:55:30;26.10;99.90
19908;DHT22;10116;53.112;7.356;2022-10-16T16:57:55;26.10;99.90
19908;DHT22;10116;53.112;7.356;2022-10-16T17:00:22;26.10;99.90
19908;DHT22;10116;53.112;7.356;2022-10-16T17:02:49;26.10;99.90
19908;DHT22;10116;53.112;7.356;2022-10-16T17:05:15;26.00;99.90
19908;DHT22;10116;53.112;7.356;2022-10-16T17:07:41;26.00;99.90
19908;DHT22;10116;53.112;7.356;2022-10-16T17:10:08;25.90;99.90
19908;DHT22;10116;53.112;7.356;2022-10-16T17:12:34;25.90;99.90
19908;DHT22;10116;53.112;7.356;2022-10-16T17:14:59;25.90;99.90
19908;DHT22;10116;53.112;7.356;2022-10-16T17:17:25;25.90;99.90
19908;DHT22;10116;53.112;7.356;2022-10-16T17:19:50;25.80;99.90
19908;DHT22;10116;53.112;7.356;2022-10-16T17:22:17;25.80;99.90
19908;DHT22;10116;53.112;7.356;2022-10-16T17:24:43;25.80;99.90
19908;DHT22;10116;53.112;7.356;2022-10-16T17:27:09;25.80;99.90
19908;DHT22;10116;53.112;7.356;2022-10-16T17:29:36;25.70;99.90
19908;DHT22;10116;53.112;7.356;2022-10-16T17:32:02;25.80;99.90
19908;DHT22;10116;53.112;7.356;2022-10-16T17:34:28;25.90;99.90
19908;DHT22;10116;53.112;7.356;2022-10-16T17:36:53;25.90;99.90
19908;DHT22;10116;53.112;7.356;2022-10-16T17:39:19;26.00;99.90